Rechercher aéroport 
image banner adimage banner adimage banner ad
image banner ad

62CL - Flying S Ranch

Situé à Caliente, United States

ICAO - 62CL, IATA -

Données fournies par Airmate  

Information générale

Coordonnées: N35°24'26" W118°30'0"
Élévation : 3485 feet MSL.
Variation magnétique : 14° East
Voir autres Aéroports à California

Données opérationnelles

Special qualification required
Heure actuelle UTC:
Heure actuelle locale:
Météo à : KTSP - Tehachapi Muni ( 31 km )
METAR: KTSP 262355Z AUTO 12009G15KT 10SM FEW065 FEW095 BKN110 27/12 A3008 RMK AO2
Voir NOTAMs / SUP AIP / TFR affectant cet aéroport [VIEW]
Fréquences de communication: [VIEW]

Pistes:

Identifiant RWYQFULongueur (ft)Largeur (ft)SurfaceLDA (ft)
07375050EARTH
25375050EARTH

Coordonnées de l'aéroport

Adresse: Caliente United States

Vue satellite de 62CL